ADDS METAR Data INFO
IDs: Format: Raw Decoded Include TAF

Data at: 1508 UTC 11 Dec 2017

KCSQ 111455Z AUTO 30025G34KT 10SM CLR 05/M05 A2984 RMK AO2
KCSQ 111435Z AUTO 29019G25KT 10SM CLR 04/M06 A2984 RMK AO2
KCSQ 111415Z AUTO 28015G21KT 10SM CLR 02/M07 A2984 RMK AO2
KCSQ 111355Z AUTO 26013KT 10SM CLR 01/M06 A2984 RMK AO2
KCSQ 111335Z AUTO 27013KT 10SM CLR 01/M06 A2984 RMK AO2
KCSQ 111315Z AUTO 27014KT 10SM CLR 01/M06 A2984 RMK AO2
KCSQ 111255Z AUTO 27012KT 10SM CLR 01/M06 A2985 RMK AO2
KCSQ 111235Z AUTO 27010KT 10SM CLR 00/M06 A2985 RMK AO2
KCSQ 111215Z AUTO 26008KT 10SM CLR 00/M06 A2986 RMK AO2
KCSQ 111155Z AUTO 27012KT 10SM CLR 01/M06 A2987 RMK AO2
KCSQ 111135Z AUTO 25008KT 10SM CLR 00/M05 A2987 RMK AO2
KCSQ 111115Z AUTO 25008KT 10SM CLR 01/M05 A2988 RMK AO2
KCSQ 111055Z AUTO 24007KT 10SM CLR 01/M05 A2988 RMK AO2
KCSQ 111035Z AUTO 24006KT 10SM CLR 01/M05 A2989 RMK AO2
KCSQ 111015Z AUTO 21006KT 10SM CLR 01/M05 A2990 RMK AO2
KCSQ 110955Z AUTO 21005KT 10SM CLR 02/M04 A2992 RMK AO2
KCSQ 110935Z AUTO 22005KT 10SM CLR 02/M04 A2994 RMK AO2
KCSQ 110915Z AUTO 20005KT 10SM CLR 01/M04 A2995 RMK AO2
KCSQ 110855Z AUTO 21005KT 10SM CLR 02/M04 A2997 RMK AO2
KCSQ 110835Z AUTO 23005KT 10SM CLR 01/M04 A2998 RMK AO2
KCSQ 110815Z AUTO 22005KT 10SM CLR 01/M04 A2998 RMK AO2
KCSQ 110755Z AUTO 21006KT 10SM CLR 00/M04 A2999 RMK AO2
KCSQ 110735Z AUTO 21007KT 10SM CLR 00/M04 A3000 RMK AO2
KCSQ 110715Z AUTO 21004KT CLR 01/M04 A3000 RMK AO2
KCSQ 110655Z AUTO 23004KT 10SM CLR 00/M04 A3002 RMK AO2
KCSQ 110635Z AUTO 22006KT 10SM CLR 00/M04 A3002 RMK AO2
KCSQ 110615Z AUTO 23007KT 10SM CLR 00/M04 A3004 RMK AO2
KCSQ 110555Z AUTO 23006KT 10SM CLR 01/M04 A3004 RMK AO2
KCSQ 110535Z AUTO 23006KT 10SM CLR 01/M04 A3004 RMK AO2
KCSQ 110515Z AUTO 21005KT 10SM CLR M00/M05 A3005 RMK AO2
KCSQ 110455Z AUTO 00000KT 10SM CLR 00/M04 A3006 RMK AO2
KCSQ 110435Z AUTO 24006KT 10SM CLR 01/M04 A3007 RMK AO2
KCSQ 110415Z AUTO 24006KT 10SM CLR 01/M05 A3008 RMK AO2
KCSQ 110355Z AUTO 23005KT 10SM CLR 01/M04 A3007 RMK AO2
KCSQ 110335Z AUTO 24006KT 10SM CLR 01/M04 A3008 RMK AO2
KCSQ 110315Z AUTO 24005KT 10SM CLR 01/M04 A3009 RMK AO2
KCSQ 110255Z AUTO 00000KT 10SM CLR 02/M04 A3009 RMK AO2
KCSQ 110235Z AUTO 26003KT 10SM CLR 02/M04 A3009 RMK AO2
KCSQ 110215Z AUTO 29004KT 10SM CLR 02/M04 A3009 RMK AO2
KCSQ 110155Z AUTO 29004KT 10SM CLR 02/M04 A3009 RMK AO2
KCSQ 110135Z AUTO 29005KT 10SM CLR 02/M05 A3010 RMK AO2
KCSQ 110115Z AUTO 28005KT 10SM CLR 02/M04 A3010 RMK AO2
KCSQ 110055Z AUTO 28008KT 10SM CLR 03/M04 A3010 RMK AO2
KCSQ 110035Z AUTO 28009KT 10SM CLR 03/M04 A3011 RMK AO2
KCSQ 110015Z AUTO 28008KT 10SM CLR 04/M04 A3011 RMK AO2
KCSQ 102355Z AUTO 28007KT 10SM CLR 03/M04 A3011 RMK AO2
KCSQ 102335Z AUTO 29009KT 10SM CLR 02/M05 A3010 RMK AO2
KCSQ 102315Z AUTO 29008KT 10SM CLR 03/M04 A3010 RMK AO2
KCSQ 102255Z AUTO 28008KT 10SM CLR 06/M04 A3009 RMK AO2
KCSQ 102235Z AUTO 28007KT 10SM CLR 07/M04 A3009 RMK AO2
KCSQ 102215Z AUTO 29008KT 10SM CLR 08/M03 A3010 RMK AO2
KCSQ 102155Z AUTO 30011G17KT 10SM CLR 09/M03 A3010 RMK AO2
KCSQ 102135Z AUTO 31014KT 10SM CLR 09/M04 A3009 RMK AO2
KCSQ 102115Z AUTO 30013G19KT 10SM CLR 09/M03 A3008 RMK AO2
KCSQ 102055Z AUTO 31015KT 10SM CLR 10/M04 A3006 RMK AO2
KCSQ 102035Z AUTO 30015G21KT 10SM CLR 10/M04 A3006 RMK AO2
KCSQ 102015Z AUTO 31015G21KT 10SM CLR 10/M04 A3006 RMK AO2
KCSQ 101955Z AUTO 30016G21KT 10SM CLR 10/M04 A3006 RMK AO2
KCSQ 101935Z AUTO 32014KT 10SM CLR 10/M04 A3005 RMK AO2
KCSQ 101915Z AUTO 30013G21KT 10SM CLR 09/M04 A3005 RMK AO2
KCSQ 101855Z AUTO 31015KT 10SM CLR 09/M04 A3005 RMK AO2
KCSQ 101835Z AUTO 31014KT 10SM CLR 09/M04 A3005 RMK AO2
KCSQ 101815Z AUTO 32015G21KT 10SM CLR 08/M04 A3005 RMK AO2
KCSQ 101755Z AUTO 31016KT 10SM CLR 08/M04 A3005 RMK AO2
KCSQ 101735Z AUTO 33013G19KT 10SM CLR 07/M03 A3006 RMK AO2
KCSQ 101715Z AUTO 33017KT 10SM CLR 06/M03 A3006 RMK AO2
KCSQ 101655Z AUTO 32015KT 10SM CLR 06/M03 A3006 RMK AO2
KCSQ 101635Z AUTO 32015KT 10SM CLR 05/M03 A3006 RMK AO2
KCSQ 101615Z AUTO 32016G22KT 10SM CLR 04/M03 A3005 RMK AO2
KCSQ 101555Z AUTO 31015KT 10SM CLR 03/M03 A3004 RMK AO2
KCSQ 101535Z AUTO 31013KT 10SM CLR 03/M03 A3003 RMK AO2
KCSQ 101515Z AUTO 31014KT 10SM CLR 02/M03 A3004 RMK AO2
KCSQ 101455Z AUTO 30010KT 10SM CLR 00/M03 A3003 RMK AO2
KCSQ 101435Z AUTO 30010KT 10SM CLR M01/M04 A3003 RMK AO2
KCSQ 101415Z AUTO 30009KT 10SM CLR M02/M05 A3003 RMK AO2
KCSQ 101355Z AUTO 31009KT 10SM CLR M03/M05 A3002 RMK AO2
KCSQ 101335Z AUTO 30010KT 10SM CLR M04/M06 A3001 RMK AO2
KCSQ 101315Z AUTO 29009KT 10SM CLR M04/M06 A3000 RMK AO2
KCSQ 101255Z AUTO 29009KT 10SM CLR M04/M06 A2999 RMK AO2
KCSQ 101235Z AUTO 30010KT 10SM CLR M03/M06 A2999 RMK AO2
KCSQ 101215Z AUTO 29010KT 10SM CLR M03/M06 A2998 RMK AO2
KCSQ 101155Z AUTO 28010KT 10SM CLR M03/M06 A2997 RMK AO2
KCSQ 101135Z AUTO 29010KT 10SM CLR M03/M06 A2998 RMK AO2
KCSQ 101115Z AUTO 28008KT 10SM CLR M03/M06 A2996 RMK AO2
KCSQ 101055Z AUTO 27008KT 10SM CLR M03/M06 A2997 RMK AO2
KCSQ 101035Z AUTO 27010KT 10SM CLR M03/M06 A2996 RMK AO2
KCSQ 101015Z AUTO 26011KT 10SM CLR M03/M06 A2996 RMK AO2
KCSQ 100955Z AUTO 26010KT 10SM CLR M03/M06 A2996 RMK AO2
KCSQ 100935Z AUTO 25011G17KT 10SM CLR M03/M06 A2995 RMK AO2
KCSQ 100915Z AUTO 23009KT 10SM CLR M03/M06 A2995 RMK AO2
KCSQ 100855Z AUTO 23011KT 10SM CLR M04/M07 A2996 RMK AO2
KCSQ 100835Z AUTO 22012G18KT 10SM CLR M03/M07 A2997 RMK AO2
KCSQ 100815Z AUTO 22010KT 10SM CLR M04/M07 A2998 RMK AO2
KCSQ 100755Z AUTO 21010KT 10SM CLR M05/M07 A2998 RMK AO2
KCSQ 100735Z AUTO 19008KT 10SM CLR M06/M08 A3000 RMK AO2
KCSQ 100715Z AUTO 19006KT 10SM CLR M06/M08 A3003 RMK AO2
KCSQ 100655Z AUTO 20008KT 10SM CLR M06/M08 A3003 RMK AO2
KCSQ 100635Z AUTO 20008KT 10SM CLR M06/M08 A3005 RMK AO2
KCSQ 100615Z AUTO 20007KT 10SM CLR M06/M08 A3006 RMK AO2
KCSQ 100555Z AUTO 20008KT 10SM CLR M06/M08 A3007 RMK AO2
KCSQ 100535Z AUTO 21007KT 10SM CLR M06/M08 A3008 RMK AO2
KCSQ 100515Z AUTO 21006KT 10SM CLR M06/M08 A3007 RMK AO2
KCSQ 100455Z AUTO 22008KT 10SM CLR M06/M08 A3007 RMK AO2
KCSQ 100435Z AUTO 23005KT 10SM CLR M06/M09 A3008 RMK AO2
KCSQ 100415Z AUTO 22008KT 10SM CLR M06/M09 A3008 RMK AO2
KCSQ 100355Z AUTO 22006KT 10SM CLR M06/M09 A3009 RMK AO2
KCSQ 100335Z AUTO 23008KT 10SM CLR M06/M09 A3010 RMK AO2
KCSQ 100315Z AUTO 23007KT 10SM CLR M07/M10 A3011 RMK AO2